createdAt,value
2019-03-15T00:01:02.514Z,78.44
2019-03-15T00:03:29.920Z,78.65
2019-03-15T00:05:57.332Z,78.57
2019-03-15T00:08:24.710Z,78.76
2019-03-15T00:10:52.143Z,78.99
2019-03-15T00:13:19.596Z,79.26
2019-03-15T00:15:47.058Z,79.79
2019-03-15T00:18:14.445Z,80.05
2019-03-15T00:20:41.972Z,80.07
2019-03-15T00:23:09.379Z,80.07
2019-03-15T00:25:36.784Z,79.88
2019-03-15T00:28:04.172Z,80.04
2019-03-15T00:30:31.577Z,80.26
2019-03-15T00:32:58.994Z,80.39
2019-03-15T00:35:26.394Z,80.61
2019-03-15T00:37:53.838Z,80.85
2019-03-15T00:40:22.246Z,80.88
2019-03-15T00:42:49.947Z,80.84
2019-03-15T00:45:17.350Z,80.85
2019-03-15T00:47:44.750Z,80.64
2019-03-15T00:50:12.752Z,80.67
2019-03-15T00:52:39.575Z,80.70
2019-03-15T00:55:06.972Z,80.37
2019-03-15T00:57:34.389Z,80.42
2019-03-15T01:00:01.785Z,80.60
2019-03-15T01:02:29.177Z,80.60
2019-03-15T01:04:57.059Z,80.59
2019-03-15T01:07:25.509Z,80.76
2019-03-15T01:09:52.894Z,80.87
2019-03-15T01:12:20.301Z,81.26
2019-03-15T01:14:47.687Z,81.35
2019-03-15T01:17:15.875Z,81.42
2019-03-15T01:19:43.409Z,81.12
2019-03-15T01:22:10.807Z,80.83
2019-03-15T01:24:38.219Z,80.51
2019-03-15T01:27:05.605Z,80.61
2019-03-15T01:29:33.008Z,80.34
2019-03-15T01:32:01.106Z,80.60
2019-03-15T01:34:28.501Z,80.77
2019-03-15T01:36:55.904Z,81.13
2019-03-15T01:39:23.316Z,81.57
2019-03-15T01:41:51.582Z,82.05
2019-03-15T01:44:19.008Z,82.27
2019-03-15T01:46:46.404Z,82.49
2019-03-15T01:49:13.820Z,81.95
2019-03-15T01:51:41.583Z,81.78
2019-03-15T01:54:08.634Z,81.50
2019-03-15T01:56:36.124Z,81.52
2019-03-15T01:59:03.584Z,81.90
2019-03-15T02:01:31.061Z,81.98
2019-03-15T02:03:57.994Z,81.86
2019-03-15T02:06:24.977Z,81.59
2019-03-15T02:08:52.593Z,81.36
2019-03-15T02:11:19.758Z,81.48
2019-03-15T02:13:47.164Z,81.73
2019-03-15T02:16:14.623Z,81.82
2019-03-15T02:18:42.185Z,82.12
2019-03-15T02:21:09.613Z,82.25
2019-03-15T02:23:37.016Z,82.56
2019-03-15T02:26:05.371Z,82.43
2019-03-15T02:28:32.756Z,82.23
2019-03-15T02:31:00.219Z,82.10
2019-03-15T02:33:27.642Z,82.04
2019-03-15T02:35:55.030Z,82.07
2019-03-15T02:38:22.424Z,82.89
2019-03-15T02:40:49.817Z,82.95
2019-03-15T02:43:17.231Z,82.67
2019-03-15T02:45:44.708Z,82.76
2019-03-15T02:48:12.954Z,82.80
2019-03-15T02:50:40.476Z,82.69
2019-03-15T02:53:08.992Z,82.71
2019-03-15T02:55:35.750Z,82.99
2019-03-15T02:58:02.728Z,83.08
2019-03-15T03:00:29.651Z,83.07
2019-03-15T03:02:56.586Z,83.27
2019-03-15T03:05:23.522Z,83.33
2019-03-15T03:07:51.439Z,83.10
2019-03-15T03:10:18.823Z,82.61
2019-03-15T03:12:46.256Z,82.50
2019-03-15T03:15:13.710Z,82.42
2019-03-15T03:17:41.255Z,82.36
2019-03-15T03:20:08.637Z,82.40
2019-03-15T03:22:36.566Z,82.41
2019-03-15T03:25:03.444Z,82.55
2019-03-15T03:27:30.851Z,82.78
2019-03-15T03:29:58.257Z,82.97
2019-03-15T03:32:25.732Z,82.92
2019-03-15T03:34:53.167Z,82.53
2019-03-15T03:37:20.616Z,82.26
2019-03-15T03:39:48.016Z,81.93
2019-03-15T03:42:15.500Z,82.08
2019-03-15T03:44:42.888Z,82.12
2019-03-15T03:47:10.339Z,82.24
2019-03-15T03:49:37.753Z,82.17
2019-03-15T03:52:05.185Z,82.05
2019-03-15T03:54:32.643Z,81.87
2019-03-15T03:57:00.059Z,81.54
2019-03-15T03:59:27.521Z,81.69
2019-03-15T04:01:54.911Z,81.70
2019-03-15T04:04:22.360Z,81.49
2019-03-15T04:06:49.783Z,81.53
2019-03-15T04:09:17.187Z,81.44
2019-03-15T04:11:54.745Z,81.57
2019-03-15T04:14:12.056Z,81.53
2019-03-15T04:16:39.442Z,81.36
2019-03-15T04:19:06.873Z,81.27
2019-03-15T04:21:34.446Z,81.03
2019-03-15T04:24:01.891Z,80.83
2019-03-15T04:26:29.300Z,80.86
2019-03-15T04:28:57.160Z,80.28
2019-03-15T04:31:24.095Z,80.22
2019-03-15T04:33:51.521Z,80.11
2019-03-15T04:36:19.004Z,80.17
2019-03-15T04:38:46.411Z,80.08
2019-03-15T04:41:13.816Z,79.92
2019-03-15T04:43:41.226Z,79.92
2019-03-15T04:46:08.741Z,80.12
2019-03-15T04:48:36.139Z,80.16
2019-03-15T04:51:03.557Z,80.23
2019-03-15T04:53:31.044Z,80.23
2019-03-15T04:55:58.468Z,79.69
2019-03-15T04:58:25.881Z,79.51
2019-03-15T05:00:53.273Z,79.68
2019-03-15T05:03:20.686Z,79.81
2019-03-15T05:06:02.123Z,79.49
2019-03-15T05:08:15.685Z,79.29
2019-03-15T05:10:43.481Z,79.18
2019-03-15T05:13:10.871Z,79.21
2019-03-15T05:15:38.279Z,79.32
2019-03-15T05:18:05.693Z,79.30
2019-03-15T05:20:33.110Z,79.30
2019-03-15T05:23:00.488Z,79.49
2019-03-15T05:25:29.905Z,79.61
2019-03-15T05:27:55.315Z,79.65
2019-03-15T05:30:22.783Z,79.62
2019-03-15T05:32:50.271Z,79.52
2019-03-15T05:35:17.875Z,79.68
2019-03-15T05:37:45.316Z,79.94
2019-03-15T05:40:12.739Z,79.91
2019-03-15T05:42:40.124Z,80.05
2019-03-15T05:45:09.274Z,79.99
2019-03-15T05:47:36.684Z,79.64
2019-03-15T05:50:04.864Z,79.82
2019-03-15T05:52:32.263Z,79.99
2019-03-15T05:54:59.686Z,80.02
2019-03-15T05:57:27.118Z,79.87
2019-03-15T05:59:54.563Z,79.66
2019-03-15T06:02:21.956Z,79.78
2019-03-15T06:04:49.369Z,79.85
2019-03-15T06:07:16.746Z,80.06
2019-03-15T06:09:44.174Z,80.15
2019-03-15T06:12:11.584Z,80.19
2019-03-15T06:14:39.114Z,79.91
2019-03-15T06:17:06.633Z,79.84
2019-03-15T06:19:34.039Z,79.55
2019-03-15T06:22:01.500Z,78.96
2019-03-15T06:24:28.937Z,78.47
2019-03-15T06:26:56.377Z,78.25
2019-03-15T06:29:23.766Z,78.04
2019-03-15T06:31:51.228Z,78.07
2019-03-15T06:34:18.671Z,78.03
2019-03-15T06:36:46.093Z,78.02
2019-03-15T06:39:13.476Z,78.00
2019-03-15T06:41:40.965Z,78.00
2019-03-15T06:44:08.395Z,78.21
2019-03-15T06:46:35.827Z,78.34
2019-03-15T06:49:03.218Z,78.23
2019-03-15T06:51:30.860Z,78.32
2019-03-15T06:54:10.815Z,78.22
2019-03-15T06:56:26.426Z,78.09
2019-03-15T06:58:53.831Z,78.23
2019-03-15T07:01:21.263Z,78.10
2019-03-15T07:03:48.770Z,78.17
2019-03-15T07:06:16.326Z,78.16
2019-03-15T07:08:43.799Z,78.35
2019-03-15T07:11:11.231Z,78.50
2019-03-15T07:13:38.648Z,78.43
2019-03-15T07:16:06.126Z,78.58
2019-03-15T07:18:33.625Z,78.44
2019-03-15T07:21:01.048Z,78.34
2019-03-15T07:23:28.460Z,78.11
2019-03-15T07:25:55.886Z,77.91
2019-03-15T07:28:24.533Z,77.75
2019-03-15T07:30:52.932Z,77.49
2019-03-15T07:33:22.715Z,77.59
2019-03-15T07:35:50.534Z,77.55
2019-03-15T07:38:18.852Z,77.55
2019-03-15T07:40:47.540Z,77.56
2019-03-15T07:43:16.192Z,77.18
2019-03-15T07:45:43.626Z,77.08
2019-03-15T07:48:21.915Z,76.67
2019-03-15T07:50:38.569Z,76.56
2019-03-15T07:53:05.962Z,76.03
2019-03-15T07:55:33.424Z,75.90
2019-03-15T07:58:00.823Z,75.89
2019-03-15T08:00:29.083Z,75.90
2019-03-15T08:02:56.040Z,75.87
2019-03-15T08:05:22.996Z,75.85
2019-03-15T08:07:50.443Z,75.64
2019-03-15T08:10:17.926Z,75.57
2019-03-15T08:12:45.330Z,75.51
2019-03-15T08:15:12.847Z,75.47
2019-03-15T08:17:40.251Z,75.53
2019-03-15T08:20:14.278Z,75.45
2019-03-15T08:22:41.963Z,75.14
2019-03-15T08:25:09.686Z,74.84
2019-03-15T08:27:37.150Z,74.60
2019-03-15T08:30:05.446Z,74.40
2019-03-15T08:32:33.007Z,74.04
2019-03-15T08:35:03.652Z,74.38
2019-03-15T08:37:27.510Z,74.34
2019-03-15T08:39:54.558Z,74.24
2019-03-15T08:42:21.503Z,74.28
2019-03-15T08:44:49.069Z,74.26
2019-03-15T08:47:16.521Z,73.97
2019-03-15T08:49:44.005Z,74.11
2019-03-15T08:52:10.969Z,73.83
2019-03-15T08:54:37.946Z,73.66
2019-03-15T08:57:04.884Z,73.86
2019-03-15T08:59:31.826Z,73.62
2019-03-15T09:01:59.386Z,73.37
2019-03-15T09:04:26.856Z,73.12
2019-03-15T09:06:54.344Z,72.85
2019-03-15T09:09:21.781Z,72.28
2019-03-15T09:11:49.183Z,72.20
2019-03-15T09:14:16.612Z,72.20
2019-03-15T09:16:44.188Z,72.06
2019-03-15T09:19:11.642Z,72.06
2019-03-15T09:21:39.085Z,71.72
2019-03-15T09:24:06.540Z,72.08
2019-03-15T09:26:33.985Z,71.69
2019-03-15T09:29:01.467Z,72.00
2019-03-15T09:31:33.628Z,71.82
2019-03-15T09:33:56.394Z,71.50
2019-03-15T09:36:24.418Z,71.59
2019-03-15T09:38:51.874Z,71.31
2019-03-15T09:41:30.901Z,71.00
2019-03-15T09:43:46.685Z,70.75
2019-03-15T09:46:14.097Z,70.47
2019-03-15T09:48:43.861Z,70.07
2019-03-15T09:51:08.941Z,70.04
2019-03-15T09:53:36.337Z,70.14
2019-03-15T09:56:03.742Z,69.56
2019-03-15T09:58:31.761Z,69.72
2019-03-15T10:00:59.955Z,69.74
2019-03-15T10:03:26.677Z,69.48
2019-03-15T10:05:54.338Z,69.43
2019-03-15T10:08:23.628Z,69.60
2019-03-15T10:10:49.495Z,69.87
2019-03-15T10:13:16.834Z,69.36
2019-03-15T10:15:44.313Z,69.80
2019-03-15T10:18:11.799Z,69.27
2019-03-15T10:20:39.219Z,68.88
2019-03-15T10:23:06.738Z,68.14
2019-03-15T10:25:46.200Z,68.19
2019-03-15T10:28:01.735Z,67.46
2019-03-15T10:30:29.134Z,66.36
2019-03-15T10:32:56.625Z,66.34
2019-03-15T10:35:24.025Z,66.30
2019-03-15T10:37:52.138Z,65.72
2019-03-15T10:40:19.559Z,65.03
2019-03-15T10:42:46.996Z,64.92
2019-03-15T10:45:14.431Z,64.28
2019-03-15T10:47:42.575Z,63.76
2019-03-15T10:50:09.611Z,63.56
2019-03-15T10:52:36.552Z,63.18
2019-03-15T10:55:04.024Z,62.57
2019-03-15T10:57:31.567Z,61.56
2019-03-15T10:59:58.684Z,60.47
2019-03-15T11:02:25.653Z,60.14
2019-03-15T11:04:53.094Z,58.94
2019-03-15T11:07:20.084Z,57.89
2019-03-15T11:09:47.052Z,57.87
2019-03-15T11:12:14.011Z,57.63
2019-03-15T11:14:41.509Z,57.44
2019-03-15T11:17:08.449Z,57.05
2019-03-15T11:19:35.609Z,56.22
2019-03-15T11:22:03.921Z,56.56
2019-03-15T11:24:30.979Z,56.63
2019-03-15T11:26:58.819Z,56.85
2019-03-15T11:29:25.771Z,55.28
2019-03-15T11:31:52.735Z,54.68
2019-03-15T11:34:20.167Z,53.40
2019-03-15T11:36:57.809Z,52.27
2019-03-15T11:39:14.773Z,51.53
2019-03-15T11:41:42.212Z,50.17
2019-03-15T11:44:09.611Z,51.56
2019-03-15T11:46:37.061Z,52.52
2019-03-15T11:49:04.486Z,52.80
2019-03-15T11:51:32.161Z,52.77
2019-03-15T11:53:59.547Z,52.18
2019-03-15T11:56:27.417Z,52.74
2019-03-15T11:58:54.595Z,51.82
2019-03-15T12:01:22.325Z,50.57
2019-03-15T12:03:53.346Z,48.86
2019-03-15T12:06:17.295Z,49.31
2019-03-15T12:08:44.898Z,49.34
2019-03-15T12:11:12.286Z,46.88
2019-03-15T12:13:39.778Z,45.42
2019-03-15T12:16:07.292Z,45.25
2019-03-15T12:18:34.691Z,46.04
2019-03-15T12:21:02.161Z,45.99
2019-03-15T12:23:29.691Z,46.15
2019-03-15T12:25:56.665Z,46.53
2019-03-15T12:28:23.714Z,47.06
2019-03-15T12:30:51.074Z,47.49
2019-03-15T12:33:18.519Z,47.70
2019-03-15T12:35:46.030Z,48.42
2019-03-15T12:38:13.493Z,48.50
2019-03-15T12:40:40.909Z,47.35
2019-03-15T12:43:08.306Z,45.00
2019-03-15T12:45:35.384Z,46.35
2019-03-15T12:48:02.801Z,48.51
2019-03-15T12:50:30.217Z,50.36
2019-03-15T12:52:57.701Z,50.73
2019-03-15T12:55:25.118Z,51.62
2019-03-15T12:57:52.536Z,51.45
2019-03-15T13:00:19.973Z,50.62
2019-03-15T13:02:46.990Z,50.40
2019-03-15T13:05:13.983Z,50.24
2019-03-15T13:07:40.991Z,50.11
2019-03-15T13:10:10.262Z,49.21
2019-03-15T13:12:35.645Z,50.11
2019-03-15T13:15:02.584Z,50.15
2019-03-15T13:17:29.531Z,51.02
2019-03-15T13:19:56.542Z,51.89
2019-03-15T13:22:23.635Z,52.24
2019-03-15T13:24:50.576Z,50.84
2019-03-15T13:27:17.672Z,47.99
2019-03-15T13:29:44.707Z,48.51
2019-03-15T13:32:11.686Z,50.06
2019-03-15T13:34:38.642Z,51.83
2019-03-15T13:37:05.780Z,52.51
2019-03-15T13:39:32.765Z,52.47
2019-03-15T13:41:59.724Z,52.65
2019-03-15T13:44:27.403Z,52.72
2019-03-15T13:46:54.834Z,53.48
2019-03-15T13:49:22.341Z,53.70
2019-03-15T13:51:49.756Z,54.64
2019-03-15T13:54:16.714Z,55.10
2019-03-15T13:56:43.691Z,55.24
2019-03-15T13:59:11.320Z,55.97
2019-03-15T14:01:38.369Z,56.28
2019-03-15T14:04:05.332Z,56.23
2019-03-15T14:06:32.468Z,56.09
2019-03-15T14:08:59.398Z,56.44
2019-03-15T14:11:26.572Z,56.99
2019-03-15T14:13:53.585Z,57.51
2019-03-15T14:16:20.620Z,57.98
2019-03-15T14:18:47.554Z,58.15
2019-03-15T14:21:14.550Z,58.32
2019-03-15T14:23:41.482Z,58.77
2019-03-15T14:26:08.505Z,59.57
2019-03-15T14:28:35.642Z,59.54
2019-03-15T14:31:02.637Z,59.41
2019-03-15T14:33:29.660Z,59.64
2019-03-15T14:35:56.630Z,58.95
2019-03-15T14:38:23.579Z,58.91
2019-03-15T14:40:50.854Z,58.27
2019-03-15T14:43:17.743Z,57.60
2019-03-15T14:45:44.592Z,57.99
2019-03-15T14:48:11.826Z,57.85
2019-03-15T14:50:38.772Z,58.21
2019-03-15T14:53:05.716Z,57.89
2019-03-15T14:55:32.739Z,57.86
2019-03-15T14:58:00.395Z,57.74
2019-03-15T15:00:27.317Z,58.45
2019-03-15T15:02:54.257Z,58.33
2019-03-15T15:05:21.223Z,58.49
2019-03-15T15:07:48.195Z,58.27
2019-03-15T15:10:15.162Z,58.27
2019-03-15T15:12:42.091Z,58.07
2019-03-15T15:15:09.049Z,58.05
2019-03-15T15:17:36.008Z,57.79
2019-03-15T15:20:04.022Z,57.50
2019-03-15T15:22:30.974Z,57.30
2019-03-15T15:24:59.407Z,56.80
2019-03-15T15:27:26.407Z,56.98
2019-03-15T15:29:53.384Z,56.94
2019-03-15T15:32:21.542Z,57.03
2019-03-15T15:34:48.594Z,56.79
2019-03-15T15:37:15.543Z,56.74
2019-03-15T15:39:42.498Z,56.67
2019-03-15T15:42:09.476Z,56.62
2019-03-15T15:44:36.432Z,56.72
2019-03-15T15:47:03.394Z,57.10
2019-03-15T15:49:30.819Z,57.16
2019-03-15T15:51:58.273Z,56.99
2019-03-15T15:54:25.691Z,56.96
2019-03-15T15:56:53.119Z,57.04
2019-03-15T15:59:20.510Z,57.70
2019-03-15T16:01:47.519Z,57.95
2019-03-15T16:04:14.507Z,58.12
2019-03-15T16:06:41.465Z,58.26
2019-03-15T16:09:08.417Z,58.44
2019-03-15T16:11:35.520Z,58.73
2019-03-15T16:14:02.642Z,58.90
2019-03-15T16:16:29.643Z,59.18
2019-03-15T16:18:56.739Z,59.51
2019-03-15T16:21:25.172Z,59.81
2019-03-15T16:23:52.249Z,59.92
2019-03-15T16:26:19.186Z,60.51
2019-03-15T16:28:47.434Z,60.60
2019-03-15T16:31:15.461Z,60.90
2019-03-15T16:33:43.037Z,60.81
2019-03-15T16:36:10.419Z,60.40
2019-03-15T16:38:37.906Z,60.72
2019-03-15T16:41:05.329Z,60.40
2019-03-15T16:43:32.755Z,60.42
2019-03-15T16:46:00.138Z,60.11
2019-03-15T16:48:27.714Z,60.02
2019-03-15T16:50:54.841Z,60.27
2019-03-15T16:53:22.098Z,60.55
2019-03-15T16:55:49.043Z,61.29
2019-03-15T16:58:16.034Z,62.01
2019-03-15T17:00:43.004Z,62.57
2019-03-15T17:03:09.959Z,62.85
2019-03-15T17:05:37.395Z,63.18
2019-03-15T17:08:04.799Z,63.70
2019-03-15T17:10:32.211Z,64.21
2019-03-15T17:13:00.307Z,64.48
2019-03-15T17:15:28.691Z,64.71
2019-03-15T17:17:56.181Z,64.89
2019-03-15T17:20:23.103Z,64.95
2019-03-15T17:22:50.054Z,65.06
2019-03-15T17:25:17.005Z,65.07
2019-03-15T17:27:44.420Z,64.63
2019-03-15T17:30:12.802Z,64.48
2019-03-15T17:32:40.334Z,64.23
2019-03-15T17:35:07.742Z,64.53
2019-03-15T17:37:35.304Z,64.77
2019-03-15T17:40:02.258Z,65.16
2019-03-15T17:42:29.414Z,65.72
2019-03-15T17:44:56.479Z,65.91
2019-03-15T17:47:23.833Z,66.02
2019-03-15T17:49:50.784Z,66.29
2019-03-15T17:52:17.727Z,66.32
2019-03-15T17:54:44.981Z,66.17
2019-03-15T17:57:11.939Z,66.41
2019-03-15T17:59:40.087Z,66.44
2019-03-15T18:02:07.583Z,66.43
2019-03-15T18:04:35.076Z,66.35
2019-03-15T18:07:02.481Z,66.13
2019-03-15T18:09:30.549Z,65.68
2019-03-15T18:11:57.963Z,65.15
2019-03-15T18:14:24.981Z,64.40
2019-03-15T18:16:52.393Z,63.36
2019-03-15T18:19:19.786Z,62.26
2019-03-15T18:21:47.362Z,61.53
2019-03-15T18:24:14.796Z,60.95
2019-03-15T18:26:42.190Z,61.00
2019-03-15T18:29:09.693Z,60.57
2019-03-15T18:31:37.225Z,60.50
2019-03-15T18:34:04.614Z,60.40
2019-03-15T18:36:32.516Z,60.54
2019-03-15T18:38:59.907Z,61.06
2019-03-15T18:41:27.650Z,61.51
2019-03-15T18:43:55.546Z,61.72
2019-03-15T18:46:22.946Z,61.89
2019-03-15T18:48:50.429Z,61.78
2019-03-15T18:51:17.852Z,61.58
2019-03-15T18:53:44.827Z,61.21
2019-03-15T18:56:12.342Z,61.22
2019-03-15T18:58:39.458Z,61.33
2019-03-15T19:01:06.434Z,61.88
2019-03-15T19:03:33.943Z,62.67
2019-03-15T19:06:01.393Z,63.21
2019-03-15T19:08:28.429Z,63.69
2019-03-15T19:10:55.609Z,64.08
2019-03-15T19:13:22.740Z,64.47
2019-03-15T19:15:50.246Z,64.71
2019-03-15T19:18:17.648Z,64.65
2019-03-15T19:20:44.615Z,64.59
2019-03-15T19:23:11.609Z,64.33
2019-03-15T19:25:38.566Z,63.92
2019-03-15T19:28:05.534Z,63.52
2019-03-15T19:30:33.473Z,63.22
2019-03-15T19:33:00.673Z,63.01
2019-03-15T19:35:27.644Z,62.84
2019-03-15T19:37:55.390Z,63.21
2019-03-15T19:40:22.539Z,63.44
2019-03-15T19:42:49.531Z,63.71
2019-03-15T19:45:16.523Z,64.07
2019-03-15T19:47:43.467Z,64.28
2019-03-15T19:50:10.478Z,64.28
2019-03-15T19:52:37.450Z,64.32
2019-03-15T19:55:04.412Z,64.36
2019-03-15T19:57:31.394Z,64.43
2019-03-15T20:00:07.897Z,64.52
2019-03-15T20:02:25.921Z,64.69
2019-03-15T20:04:53.352Z,64.69
2019-03-15T20:07:20.883Z,65.02
2019-03-15T20:09:47.870Z,65.35
2019-03-15T20:12:14.918Z,65.53
2019-03-15T20:14:42.005Z,65.55
2019-03-15T20:17:08.964Z,65.04
2019-03-15T20:21:59.803Z,65.03
2019-03-15T20:24:26.773Z,64.65
2019-03-15T20:26:53.714Z,64.29
2019-03-15T20:29:20.692Z,64.40
2019-03-15T20:31:47.620Z,64.79
2019-03-15T20:34:14.569Z,65.29
2019-03-15T20:36:41.525Z,65.90
2019-03-15T20:39:09.018Z,65.84
2019-03-15T20:41:36.443Z,65.56
2019-03-15T20:44:03.849Z,65.39
2019-03-15T20:46:35.999Z,65.28
2019-03-15T20:48:59.035Z,65.41
2019-03-15T20:51:26.451Z,65.10
2019-03-15T20:53:53.886Z,65.10
2019-03-15T20:56:21.235Z,65.23
2019-03-15T20:58:48.204Z,65.38
2019-03-15T21:01:15.129Z,65.58
2019-03-15T21:03:55.229Z,65.71
2019-03-15T21:06:09.168Z,65.87
2019-03-15T21:08:36.099Z,65.96
2019-03-15T21:11:03.185Z,66.01
2019-03-15T21:13:30.202Z,66.11
2019-03-15T21:15:57.160Z,66.33
2019-03-15T21:18:24.189Z,66.50
2019-03-15T21:20:52.306Z,66.48
2019-03-15T21:23:19.297Z,66.23
2019-03-15T21:25:46.245Z,66.01
2019-03-15T21:28:13.247Z,65.68
2019-03-15T21:30:48.298Z,65.60
2019-03-15T21:33:07.183Z,65.30
2019-03-15T21:35:34.315Z,65.28
2019-03-15T21:38:01.286Z,65.37
2019-03-15T21:40:28.289Z,65.51
2019-03-15T21:42:55.327Z,65.82
2019-03-15T21:45:22.273Z,65.63
2019-03-15T21:47:49.261Z,65.58
2019-03-15T21:50:17.049Z,65.74
2019-03-15T21:52:44.132Z,65.68
2019-03-15T21:55:12.288Z,65.73
2019-03-15T21:57:39.714Z,65.81
2019-03-15T22:00:08.658Z,66.04
2019-03-15T22:02:35.609Z,66.13
2019-03-15T22:05:03.116Z,66.46
2019-03-15T22:07:31.524Z,66.54
2019-03-15T22:09:58.574Z,66.67
2019-03-15T22:12:26.035Z,66.78
2019-03-15T22:14:55.046Z,66.67
2019-03-15T22:17:22.493Z,66.77
2019-03-15T22:19:50.368Z,66.93
2019-03-15T22:22:20.187Z,67.14
2019-03-15T22:24:46.113Z,67.25
2019-03-15T22:27:13.542Z,67.36
2019-03-15T22:29:52.928Z,67.61
2019-03-15T22:32:08.310Z,67.75
2019-03-15T22:34:35.248Z,68.03
2019-03-15T22:37:02.657Z,67.91
2019-03-15T22:39:30.323Z,67.82
2019-03-15T22:41:57.753Z,67.53
2019-03-15T22:44:25.457Z,67.38
2019-03-15T22:46:52.861Z,67.23
2019-03-15T22:49:19.952Z,67.02
2019-03-15T22:51:47.339Z,66.92
2019-03-15T22:54:14.300Z,66.94
2019-03-15T22:56:41.707Z,67.18
2019-03-15T22:59:09.119Z,67.41
2019-03-15T23:01:36.590Z,67.53
2019-03-15T23:04:04.022Z,67.45
2019-03-15T23:06:31.500Z,67.58
2019-03-15T23:08:58.900Z,67.92
2019-03-15T23:11:26.341Z,67.93
2019-03-15T23:13:53.796Z,68.34
2019-03-15T23:16:21.243Z,68.39
2019-03-15T23:18:48.641Z,68.37
2019-03-15T23:21:16.062Z,68.47
2019-03-15T23:23:43.491Z,68.53
2019-03-15T23:26:11.065Z,68.54
2019-03-15T23:28:38.062Z,68.59
2019-03-15T23:31:05.653Z,68.68
2019-03-15T23:33:33.097Z,68.66
2019-03-15T23:36:00.069Z,68.75
2019-03-15T23:38:27.485Z,68.75
2019-03-15T23:40:54.927Z,68.71
2019-03-15T23:43:21.949Z,68.69
2019-03-15T23:45:49.351Z,68.76
2019-03-15T23:48:16.342Z,68.80
2019-03-15T23:50:43.314Z,68.79
2019-03-15T23:53:10.261Z,68.96
2019-03-15T23:55:37.570Z,69.03
2019-03-15T23:58:05.001Z,68.94
